Dripping Springs' Hourly Summary for Wednesday, July 11, 2018
Hour Temp
(f)
RH
(%)
Solar Rad.
(MJ/m2)
Rainfall
(in)
Wind
(mph)
7/11/2018 12:00 AM 79 81 0 0 3.57
7/11/2018 1:00 AM 78 85 0 0 2.71
7/11/2018 2:00 AM 76 88 0 0 2.71
7/11/2018 3:00 AM 75 90 0 0 0.99
7/11/2018 4:00 AM 75 90 0 0 0.99
7/11/2018 5:00 AM 74 94 0 0 1.37
7/11/2018 6:00 AM 73 95 0.01 0 0.41
7/11/2018 7:00 AM 73 95 0.33 0 1
7/11/2018 8:00 AM 76 90 0.9 0 3.36
7/11/2018 9:00 AM 79 81 1.47 0 3.36
7/11/2018 10:00 AM 83 72 2.35 0 3.67
7/11/2018 11:00 AM 86 60 2.84 0 4.62
7/11/2018 12:00 PM 88 49 3.19 0 4.62
7/11/2018 1:00 PM 90 43 3.19 0 4.4
7/11/2018 2:00 PM 91 43 2.61 0 5.13
7/11/2018 3:00 PM 92 37 2.61 0 5.88
7/11/2018 4:00 PM 92 37 2.31 0 5.88
7/11/2018 5:00 PM 92 37 1.9 0 6.03
7/11/2018 6:00 PM 92 37 1.25 0 6.03
7/11/2018 7:00 PM 91 41 0.73 0 5.83
7/11/2018 8:00 PM 90 47 0.56 0 5.83
7/11/2018 9:00 PM 87 53 0.09 0 3.07
7/11/2018 10:00 PM 83 59 0 0 1.27
7/11/2018 11:00 PM 81 67 0 0 0.46
Data Summary 83 65 26.34 0.00 3.47